createdAt,value
2022-09-09T00:03:43.610Z,29.7
2022-09-09T00:09:22.107Z,29.7
2022-09-09T00:14:58.015Z,29.7
2022-09-09T04:58:08.265Z,27.2
2022-09-09T05:03:46.954Z,27.1
2022-09-09T05:09:08.430Z,27.1
2022-09-09T05:14:48.607Z,27.1
2022-09-09T05:20:33.016Z,27
2022-09-09T05:26:10.017Z,27
2022-09-09T05:31:17.385Z,26.9
2022-09-09T05:36:42.506Z,26.9
2022-09-09T05:42:23.706Z,26.9
2022-09-09T05:48:01.895Z,26.9
2022-09-09T05:53:40.303Z,26.9
2022-09-09T05:59:02.104Z,26.8
2022-09-09T06:04:40.188Z,26.8
2022-09-09T06:10:22.730Z,26.8
2022-09-09T06:16:00.267Z,26.8
2022-09-09T06:21:37.332Z,26.8
2022-09-09T06:27:15.738Z,26.7
2022-09-09T06:32:54.021Z,26.7
2022-09-09T06:38:31.683Z,26.6
2022-09-09T06:44:09.770Z,48.1
2022-09-09T06:49:48.398Z,46.9
2022-09-09T06:55:28.087Z,44.1
2022-09-09T07:01:26.112Z,47.3
2022-09-09T07:06:17.318Z,48.7
2022-09-09T07:11:47.163Z,47.2
2022-09-09T07:17:29.424Z,44.1
2022-09-09T07:23:06.410Z,50
2022-09-09T07:28:44.673Z,45.8
2022-09-09T07:34:30.926Z,45.9
2022-09-09T07:40:13.465Z,48.6
2022-09-09T07:45:51.892Z,44.1
2022-09-09T07:51:17.795Z,54.8
2022-09-09T07:56:56.922Z,49.6
2022-09-09T08:02:37.333Z,51.3
2022-09-09T08:08:00.348Z,50.4
2022-09-09T08:14:09.857Z,49.3
2022-09-09T08:19:47.075Z,48.7
2022-09-09T08:25:09.687Z,50.8
2022-09-09T08:30:47.271Z,50.5
2022-09-09T08:36:31.995Z,48.4
2022-09-09T08:42:13.665Z,44.6
2022-09-09T08:47:57.138Z,53.4
2022-09-09T08:53:18.606Z,51.5
2022-09-09T08:58:51.307Z,53.2
2022-09-09T09:04:18.111Z,53.8
2022-09-09T13:33:20.185Z,50.3
2022-09-09T13:39:01.002Z,48.3
2022-09-09T13:44:39.055Z,45.4
2022-09-09T13:50:19.569Z,42.4
2022-09-09T13:55:57.676Z,39.8
2022-09-09T14:01:49.663Z,37.8
2022-09-09T14:07:27.354Z,36.4
2022-09-09T14:13:05.738Z,35.4
2022-09-09T14:18:43.423Z,34.7
2022-09-09T14:24:26.812Z,34.1
2022-09-09T14:30:18.946Z,33.5
2022-09-09T14:35:41.225Z,33.1
2022-09-09T14:41:19.049Z,32.6
2022-09-09T14:46:57.389Z,32.3
2022-09-09T14:52:21.004Z,31.9
2022-09-09T14:57:42.684Z,31.7
2022-09-09T15:03:22.227Z,31.5
2022-09-09T15:08:59.815Z,31.3
2022-09-09T15:14:40.447Z,31.1
2022-09-09T15:20:18.977Z,31
2022-09-09T15:26:00.902Z,30.8
2022-09-09T15:31:39.568Z,30.7
2022-09-09T15:37:17.819Z,30.6
2022-09-09T15:42:55.788Z,30.5
2022-09-09T15:48:34.003Z,30.4
2022-09-09T15:54:39.597Z,30.3
2022-09-09T16:00:16.861Z,30.3
2022-09-09T16:06:00.842Z,30.2
2022-09-09T16:11:44.245Z,30.1
2022-09-09T16:17:21.071Z,30.1
2022-09-09T16:22:58.419Z,30
2022-09-09T16:28:40.029Z,29.9
2022-09-09T16:34:22.716Z,29.8
2022-09-09T16:39:59.693Z,29.7
2022-09-09T16:45:38.247Z,29.6
2022-09-09T16:51:16.013Z,29.6
2022-09-09T16:56:53.634Z,29.5
2022-09-09T17:02:32.690Z,29.4
2022-09-09T17:08:16.058Z,29.4
2022-09-09T17:13:38.070Z,29.4
2022-09-09T17:19:33.964Z,29.4
2022-09-09T17:25:41.418Z,29.4
2022-09-09T17:31:03.118Z,29.4
2022-09-09T17:36:26.163Z,29.4
2022-09-09T17:42:08.039Z,29.4
2022-09-09T17:47:30.340Z,29.4
2022-09-09T17:52:53.056Z,29.4
2022-09-09T17:58:30.420Z,29.4
2022-09-09T18:04:09.501Z,29.4
2022-09-09T18:09:47.646Z,29.4
2022-09-09T18:15:33.553Z,29.4
2022-09-09T18:21:01.205Z,29.4
2022-09-09T18:26:39.597Z,29.5
2022-09-09T18:32:20.202Z,29.4
2022-09-09T18:38:01.033Z,29.4
2022-09-09T18:43:39.683Z,29.4
2022-09-09T18:49:16.637Z,29.4
2022-09-09T18:54:39.055Z,29.4
2022-09-09T19:00:17.016Z,29.2
2022-09-09T19:05:54.842Z,29
2022-09-09T19:11:22.778Z,28.8
2022-09-09T19:17:02.365Z,28.8
2022-09-09T19:22:23.480Z,28.7
2022-09-09T19:28:00.661Z,28.6
2022-09-09T19:34:15.281Z,28.6
2022-09-09T19:39:37.743Z,28.6
2022-09-09T19:45:00.199Z,28.6
2022-09-09T19:50:22.950Z,28.6
2022-09-09T19:56:02.045Z,28.6
2022-09-09T20:01:40.295Z,28.6
2022-09-09T20:07:41.085Z,28.6
2022-09-09T20:13:17.906Z,28.5
2022-09-09T20:18:55.796Z,28.4
2022-09-09T20:24:38.621Z,28.4
2022-09-09T20:30:05.494Z,28.3
2022-09-09T20:35:42.955Z,28.3
2022-09-09T20:41:23.020Z,28.3
2022-09-09T20:47:00.243Z,28.3
2022-09-09T20:52:43.351Z,28.3
2022-09-09T20:58:21.418Z,28.3
2022-09-09T21:03:58.962Z,28.2
2022-09-09T21:09:39.698Z,28.2
2022-09-09T21:15:18.012Z,28.1
2022-09-09T21:20:39.443Z,28.1
2022-09-09T21:26:16.963Z,28.1
2022-09-09T21:32:04.462Z,28.1
2022-09-09T21:37:46.429Z,28.1
2022-09-09T21:43:24.143Z,28.2
2022-09-09T21:49:01.647Z,28.2
2022-09-09T21:54:28.551Z,28.1
2022-09-09T22:00:05.699Z,28.1
2022-09-09T22:05:29.344Z,28.1
2022-09-09T22:11:07.300Z,28.1
2022-09-09T22:16:28.418Z,28.1
2022-09-09T22:22:06.347Z,28.1
2022-09-09T22:27:43.546Z,28.1
2022-09-09T22:33:05.476Z,28.1
2022-09-09T22:38:28.092Z,28.1
2022-09-09T22:43:34.579Z,28
2022-09-09T22:48:55.682Z,27.9
2022-09-09T22:54:23.279Z,27.9
2022-09-09T23:00:01.514Z,27.9
2022-09-09T23:05:38.910Z,27.9
2022-09-09T23:11:01.417Z,27.9
2022-09-09T23:16:39.158Z,27.9
2022-09-09T23:22:00.123Z,27.9
2022-09-09T23:27:38.191Z,27.9
